createdAt,value
2023-04-15T00:02:18.461Z,8.50
2023-04-15T00:04:47.077Z,7.78
2023-04-15T00:07:16.350Z,7.65
2023-04-15T00:09:46.175Z,7.53
2023-04-15T00:12:14.373Z,10.75
2023-04-15T00:14:45.097Z,7.88
2023-04-15T00:17:13.307Z,6.88
2023-04-15T00:19:41.907Z,8.73
2023-04-15T00:22:09.893Z,10.38
2023-04-15T00:24:38.096Z,8.05
2023-04-15T00:27:07.786Z,7.45
2023-04-15T00:29:36.183Z,8.48
2023-04-15T00:32:04.430Z,9.00
2023-04-15T00:34:32.701Z,10.05
2023-04-15T00:37:00.805Z,9.30
2023-04-15T00:39:32.050Z,8.60
2023-04-15T00:42:00.123Z,10.25
2023-04-15T00:44:29.624Z,10.30
2023-04-15T00:46:59.467Z,8.02
2023-04-15T00:49:28.987Z,9.30
2023-04-15T00:51:57.325Z,7.93
2023-04-15T00:54:25.618Z,9.48
2023-04-15T00:56:53.726Z,8.32
2023-04-15T00:59:22.853Z,9.27
2023-04-15T01:01:52.987Z,12.77
2023-04-15T01:04:21.724Z,7.72
2023-04-15T01:06:50.016Z,11.23
2023-04-15T01:09:18.183Z,9.65
2023-04-15T01:11:46.507Z,11.60
2023-04-15T01:14:15.419Z,9.68
2023-04-15T01:16:45.416Z,9.45
2023-04-15T01:19:18.050Z,9.32
2023-04-15T01:21:47.070Z,11.75
2023-04-15T01:24:19.496Z,11.43
2023-04-15T01:26:52.718Z,10.25
2023-04-15T01:29:20.868Z,12.00
2023-04-15T01:31:53.800Z,9.25
2023-04-15T01:34:22.428Z,10.30
2023-04-15T01:36:50.680Z,10.50
2023-04-15T01:39:19.373Z,8.98
2023-04-15T01:41:49.207Z,11.63
2023-04-15T01:44:17.813Z,11.48
2023-04-15T01:46:45.941Z,8.95
2023-04-15T01:49:14.128Z,9.52
2023-04-15T01:51:44.612Z,9.20
2023-04-15T01:54:12.822Z,13.63
2023-04-15T01:56:41.079Z,11.05
2023-04-15T01:59:10.910Z,9.35
2023-04-15T02:01:39.086Z,9.80
2023-04-15T02:04:08.289Z,10.05
2023-04-15T02:06:36.556Z,11.88
2023-04-15T02:09:04.967Z,10.90
2023-04-15T02:11:33.173Z,13.43
2023-04-15T02:14:01.380Z,11.68
2023-04-15T02:16:33.566Z,10.73
2023-04-15T02:19:02.277Z,11.55
2023-04-15T02:21:30.889Z,11.13
2023-04-15T02:24:02.338Z,12.15
2023-04-15T02:26:32.754Z,12.27
2023-04-15T02:29:01.307Z,8.40
2023-04-15T02:31:34.101Z,9.50
2023-04-15T02:34:04.442Z,12.65
2023-04-15T02:36:33.153Z,11.85
2023-04-15T02:39:01.581Z,10.43
2023-04-15T02:41:30.940Z,9.55
2023-04-15T02:43:58.975Z,10.77
2023-04-15T02:46:27.561Z,10.13
2023-04-15T02:48:57.361Z,13.07
2023-04-15T02:51:27.114Z,9.10
2023-04-15T02:53:55.396Z,11.98
2023-04-15T02:56:23.725Z,8.45
2023-04-15T02:58:56.446Z,11.45
2023-04-15T03:01:24.593Z,11.55
2023-04-15T03:03:52.915Z,11.50
2023-04-15T03:06:22.456Z,12.40
2023-04-15T03:08:50.529Z,11.38
2023-04-15T03:11:18.851Z,16.77
2023-04-15T03:13:47.453Z,12.77
2023-04-15T03:16:16.348Z,10.30
2023-04-15T03:18:44.577Z,11.10
2023-04-15T03:21:14.085Z,10.40
2023-04-15T03:23:44.366Z,12.77
2023-04-15T03:26:24.689Z,9.93
2023-04-15T03:28:53.249Z,13.10
2023-04-15T03:31:21.802Z,15.00
2023-04-15T03:33:52.691Z,11.52
2023-04-15T03:36:20.921Z,13.48
2023-04-15T03:38:50.586Z,11.98
2023-04-15T03:41:18.941Z,10.75
2023-04-15T03:43:47.049Z,12.73
2023-04-15T03:46:15.223Z,13.02
2023-04-15T03:48:43.337Z,14.13
2023-04-15T03:51:11.748Z,13.10
2023-04-15T03:53:39.892Z,12.77
2023-04-15T03:56:09.400Z,11.50
2023-04-15T03:58:37.529Z,11.20
2023-04-15T04:01:06.210Z,12.77
2023-04-15T04:03:34.653Z,10.67
2023-04-15T04:06:03.774Z,10.47
2023-04-15T04:08:31.898Z,12.40
2023-04-15T04:10:59.928Z,11.63
2023-04-15T04:13:29.370Z,12.60
2023-04-15T04:15:58.013Z,11.83
2023-04-15T04:18:26.155Z,13.47
2023-04-15T04:20:54.311Z,12.53
2023-04-15T04:23:22.522Z,14.13
2023-04-15T04:25:51.079Z,14.37
2023-04-15T04:28:19.241Z,16.83
2023-04-15T04:30:49.054Z,20.60
2023-04-15T04:33:17.160Z,22.20
2023-04-15T04:35:45.394Z,25.17
2023-04-15T04:38:13.537Z,26.67
2023-04-15T04:40:42.313Z,31.10
2023-04-15T04:43:10.660Z,32.97
2023-04-15T04:45:39.246Z,33.60
2023-04-15T04:48:10.535Z,38.03
2023-04-15T04:50:38.680Z,40.40
2023-04-15T04:53:06.694Z,41.17
2023-04-15T04:55:36.980Z,39.87
2023-04-15T04:58:05.129Z,39.33
2023-04-15T05:00:33.722Z,39.10
2023-04-15T05:03:01.928Z,36.93
2023-04-15T05:05:31.720Z,37.07
2023-04-15T05:08:01.531Z,38.40
2023-04-15T05:10:32.365Z,40.37
2023-04-15T05:13:00.447Z,39.27
2023-04-15T05:15:28.878Z,40.60
2023-04-15T05:17:57.013Z,39.40
2023-04-15T05:20:26.712Z,40.40
2023-04-15T05:22:56.731Z,40.80
2023-04-15T05:25:25.478Z,42.90
2023-04-15T05:27:53.611Z,42.63
2023-04-15T05:30:23.544Z,43.83
2023-04-15T05:32:51.909Z,43.60
2023-04-15T05:35:20.221Z,45.93
2023-04-15T05:37:48.458Z,44.57
2023-04-15T05:40:18.891Z,44.13
2023-04-15T05:42:47.001Z,43.83
2023-04-15T05:45:15.148Z,43.83
2023-04-15T05:47:48.858Z,42.67
2023-04-15T05:50:17.221Z,42.73
2023-04-15T05:52:45.986Z,43.03
2023-04-15T05:55:14.607Z,42.13
2023-04-15T05:57:44.222Z,42.73
2023-04-15T06:00:15.636Z,43.83
2023-04-15T06:02:44.063Z,43.20
2023-04-15T06:05:12.635Z,44.30
2023-04-15T06:07:40.901Z,44.73
2023-04-15T06:10:10.215Z,45.90
2023-04-15T06:12:38.427Z,44.20
2023-04-15T06:15:10.506Z,46.07
2023-04-15T06:17:38.618Z,43.30
2023-04-15T06:20:08.646Z,44.30
2023-04-15T06:22:39.157Z,42.57
2023-04-15T06:25:12.414Z,40.88
2023-04-15T06:27:40.655Z,41.67
2023-04-15T06:30:12.413Z,42.17
2023-04-15T06:32:40.664Z,43.30
2023-04-15T06:35:09.479Z,43.13
2023-04-15T06:37:37.760Z,40.75
2023-04-15T06:40:07.539Z,38.60
2023-04-15T06:42:36.818Z,42.00
2023-04-15T06:45:06.858Z,42.28
2023-04-15T06:47:36.982Z,44.42
2023-04-15T06:50:05.844Z,42.50
2023-04-15T06:52:37.752Z,43.00
2023-04-15T06:55:07.123Z,40.20
2023-04-15T06:57:35.704Z,39.72
2023-04-15T07:00:05.902Z,38.15
2023-04-15T07:02:35.741Z,39.35
2023-04-15T07:05:05.033Z,41.88
2023-04-15T07:07:33.222Z,39.78
2023-04-15T07:10:02.280Z,41.60
2023-04-15T07:12:30.640Z,41.92
2023-04-15T07:14:58.821Z,39.30
2023-04-15T07:17:28.962Z,39.80
2023-04-15T07:20:01.090Z,37.40
2023-04-15T07:22:29.174Z,37.53
2023-04-15T07:24:59.180Z,36.08
2023-04-15T07:27:30.157Z,30.73
2023-04-15T07:30:01.499Z,28.00
2023-04-15T07:32:29.851Z,24.15
2023-04-15T07:35:11.842Z,16.38
2023-04-15T07:37:45.547Z,16.85
2023-04-15T07:40:14.761Z,14.80
2023-04-15T07:42:55.801Z,13.93
2023-04-15T07:45:26.523Z,12.73
2023-04-15T07:47:56.452Z,11.98
2023-04-15T07:50:26.225Z,11.75
2023-04-15T07:52:54.933Z,11.77
2023-04-15T07:55:23.133Z,15.10
2023-04-15T07:57:52.714Z,14.27
2023-04-15T08:00:21.092Z,12.82
2023-04-15T08:02:50.055Z,13.30
2023-04-15T08:05:18.404Z,13.05
2023-04-15T08:07:48.601Z,11.60
2023-04-15T08:10:16.769Z,14.13
2023-04-15T08:12:49.175Z,12.32
2023-04-15T08:15:17.763Z,13.50
2023-04-15T08:17:45.981Z,12.75
2023-04-15T08:20:14.504Z,11.13
2023-04-15T08:22:51.986Z,12.77
2023-04-15T08:25:23.338Z,11.07
2023-04-15T08:27:51.567Z,12.05
2023-04-15T08:30:20.379Z,15.88
2023-04-15T08:32:52.411Z,11.43
2023-04-15T08:35:20.713Z,13.23
2023-04-15T08:37:50.210Z,12.82
2023-04-15T08:40:18.401Z,9.75
2023-04-15T08:42:50.914Z,9.80
2023-04-15T08:45:20.301Z,11.50
2023-04-15T08:47:59.305Z,10.20
2023-04-15T08:50:30.648Z,12.07
2023-04-15T08:53:00.506Z,10.85
2023-04-15T08:55:31.633Z,11.80
2023-04-15T08:57:59.721Z,12.10
2023-04-15T09:00:29.230Z,11.00
2023-04-15T09:02:58.161Z,10.98
2023-04-15T09:05:26.689Z,11.45
2023-04-15T09:07:54.903Z,9.70
2023-04-15T09:10:26.357Z,12.00
2023-04-15T09:12:54.424Z,11.18
2023-04-15T09:15:23.777Z,13.18
2023-04-15T09:17:52.233Z,10.20
2023-04-15T09:20:20.520Z,9.93
2023-04-15T09:22:50.772Z,9.57
2023-04-15T09:25:32.137Z,11.02
2023-04-15T09:28:05.151Z,9.63
2023-04-15T09:30:33.120Z,11.35
2023-04-15T09:33:05.091Z,10.07
2023-04-15T09:35:33.308Z,9.18
2023-04-15T09:38:08.552Z,8.82
2023-04-15T09:40:40.342Z,6.93
2023-04-15T09:43:09.461Z,7.20
2023-04-15T09:45:38.270Z,9.75
2023-04-15T09:48:18.284Z,8.90
2023-04-15T09:50:53.780Z,6.97
2023-04-15T09:53:24.851Z,5.90
2023-04-15T09:55:56.905Z,7.05
2023-04-15T09:58:26.489Z,4.97
2023-04-15T10:00:56.874Z,6.18
2023-04-15T10:03:26.655Z,5.63
2023-04-15T10:05:56.917Z,5.13
2023-04-15T10:08:26.409Z,3.55
2023-04-15T10:10:56.689Z,5.32
2023-04-15T10:13:36.261Z,3.33
2023-04-15T10:16:08.717Z,4.53
2023-04-15T10:18:39.228Z,6.22
2023-04-15T10:21:08.170Z,6.82
2023-04-15T10:23:36.846Z,6.13
2023-04-15T10:26:07.095Z,5.28
2023-04-15T10:28:35.905Z,5.53
2023-04-15T10:31:06.000Z,4.72
2023-04-15T10:33:34.799Z,4.95
2023-04-15T10:36:03.848Z,5.60
2023-04-15T10:38:37.323Z,3.78
2023-04-15T10:41:21.555Z,4.78
2023-04-15T10:43:55.019Z,6.63
2023-04-15T10:46:25.700Z,4.75
2023-04-15T10:48:55.536Z,6.05
2023-04-15T10:51:33.279Z,4.75
2023-04-15T10:54:02.146Z,4.72
2023-04-15T10:56:43.179Z,7.53
2023-04-15T10:59:11.334Z,7.15
2023-04-15T11:01:52.922Z,5.25
2023-04-15T11:04:52.738Z,5.30
2023-04-15T11:07:41.381Z,4.75
2023-04-15T11:10:51.315Z,8.02
2023-04-15T11:13:23.726Z,6.20
2023-04-15T11:15:52.028Z,6.43
2023-04-15T11:18:22.223Z,4.75
2023-04-15T11:20:56.572Z,7.05
2023-04-15T11:23:30.600Z,4.82
2023-04-15T11:26:00.583Z,7.53
2023-04-15T11:28:31.017Z,5.30
2023-04-15T11:30:59.978Z,4.10
2023-04-15T11:33:27.914Z,6.15
2023-04-15T11:35:58.503Z,5.32
2023-04-15T11:38:26.444Z,8.30
2023-04-15T11:40:54.686Z,4.63
2023-04-15T11:43:25.141Z,3.67
2023-04-15T11:45:57.905Z,4.47
2023-04-15T11:48:27.918Z,3.28
2023-04-15T11:50:58.137Z,5.90
2023-04-15T11:53:37.146Z,5.75
2023-04-15T11:56:05.854Z,5.25
2023-04-15T11:58:36.497Z,4.65
2023-04-15T12:01:07.403Z,6.07
2023-04-15T12:03:40.565Z,5.38
2023-04-15T12:06:19.129Z,4.68
2023-04-15T12:09:01.860Z,5.28
2023-04-15T12:11:35.290Z,4.88
2023-04-15T12:14:11.185Z,9.05
2023-04-15T12:16:49.104Z,6.40
2023-04-15T12:19:24.492Z,7.28
2023-04-15T12:21:53.645Z,7.30
2023-04-15T12:24:23.962Z,5.40
2023-04-15T12:26:56.170Z,9.35
2023-04-15T12:29:27.871Z,6.57
2023-04-15T12:31:58.493Z,7.88
2023-04-15T12:34:33.664Z,7.20
2023-04-15T12:37:14.463Z,6.13
2023-04-15T12:39:44.977Z,7.15
2023-04-15T12:42:13.805Z,8.90
2023-04-15T12:44:41.856Z,8.02
2023-04-15T12:47:12.678Z,8.18
2023-04-15T12:49:41.396Z,8.23
2023-04-15T12:52:09.720Z,9.35
2023-04-15T12:54:38.123Z,8.88
2023-04-15T12:57:09.044Z,9.93
2023-04-15T12:59:37.659Z,8.88
2023-04-15T13:02:06.380Z,8.48
2023-04-15T13:04:36.115Z,8.35
2023-04-15T13:07:13.844Z,6.50
2023-04-15T13:09:50.922Z,6.07
2023-04-15T13:12:19.359Z,8.05
2023-04-15T13:14:55.675Z,9.27
2023-04-15T13:17:27.794Z,7.65
2023-04-15T13:19:58.365Z,7.78
2023-04-15T13:22:27.242Z,7.43
2023-04-15T13:24:58.766Z,5.85
2023-04-15T13:27:28.325Z,4.93
2023-04-15T13:29:57.753Z,5.20
2023-04-15T13:32:26.248Z,9.93
2023-04-15T13:35:04.569Z,13.57
2023-04-15T13:37:32.866Z,7.68
2023-04-15T13:40:04.021Z,14.63
2023-04-15T13:42:32.235Z,6.18
2023-04-15T13:45:17.249Z,11.82
2023-04-15T13:47:45.697Z,6.70
2023-04-15T13:50:16.254Z,4.90
2023-04-15T13:52:44.590Z,7.55
2023-04-15T13:55:18.713Z,8.05
2023-04-15T13:57:48.262Z,7.90
2023-04-15T14:00:17.471Z,7.28
2023-04-15T14:02:46.076Z,8.25
2023-04-15T14:05:16.377Z,7.70
2023-04-15T14:07:44.880Z,5.60
2023-04-15T14:10:13.205Z,8.38
2023-04-15T14:12:43.005Z,8.00
2023-04-15T14:15:11.860Z,6.45
2023-04-15T14:17:42.519Z,8.40
2023-04-15T14:20:11.617Z,12.27
2023-04-15T14:22:42.677Z,7.82
2023-04-15T14:25:17.194Z,6.57
2023-04-15T14:27:45.712Z,7.07
2023-04-15T14:30:14.592Z,7.07
2023-04-15T14:32:43.093Z,5.15
2023-04-15T14:35:11.176Z,6.35
2023-04-15T14:37:45.370Z,9.70
2023-04-15T14:40:13.681Z,5.95
2023-04-15T14:42:48.692Z,10.30
2023-04-15T14:45:17.680Z,5.40
2023-04-15T14:47:46.119Z,7.05
2023-04-15T14:50:14.587Z,7.32
2023-04-15T14:52:44.126Z,11.30
2023-04-15T14:55:13.486Z,5.88
2023-04-15T14:57:42.777Z,7.53
2023-04-15T15:00:15.851Z,11.32
2023-04-15T15:02:44.830Z,8.98
2023-04-15T15:05:13.164Z,8.30
2023-04-15T15:07:45.701Z,9.10
2023-04-15T15:10:13.762Z,7.10
2023-04-15T15:12:42.041Z,14.82
2023-04-15T15:15:24.945Z,6.70
2023-04-15T15:17:57.192Z,9.20
2023-04-15T15:20:28.885Z,7.78
2023-04-15T15:22:58.638Z,5.53
2023-04-15T15:25:26.805Z,8.05
2023-04-15T15:27:55.198Z,9.50
2023-04-15T15:30:23.675Z,8.07
2023-04-15T15:32:51.860Z,6.55
2023-04-15T15:35:20.142Z,5.65
2023-04-15T15:37:48.583Z,9.52
2023-04-15T15:40:18.114Z,7.10
2023-04-15T15:42:47.251Z,7.72
2023-04-15T15:45:15.490Z,11.27
2023-04-15T15:47:44.179Z,10.15
2023-04-15T15:50:14.234Z,6.78
2023-04-15T15:52:42.717Z,8.57
2023-04-15T15:55:11.306Z,9.82
2023-04-15T15:57:40.956Z,12.00
2023-04-15T16:00:12.942Z,9.52
2023-04-15T16:05:13.216Z,7.40
2023-04-15T16:07:42.976Z,10.23
2023-04-15T16:10:13.805Z,6.97
2023-04-15T16:12:43.428Z,10.60
2023-04-15T16:15:13.826Z,10.60
2023-04-15T16:17:45.191Z,8.02
2023-04-15T16:20:13.314Z,6.30
2023-04-15T16:22:42.341Z,5.75
2023-04-15T16:25:10.976Z,8.60
2023-04-15T16:30:13.879Z,9.82
2023-04-15T16:32:42.065Z,10.45
2023-04-15T16:35:14.461Z,6.95
2023-04-15T16:37:45.434Z,6.35
2023-04-15T16:40:14.404Z,10.43
2023-04-15T16:42:43.820Z,7.28
2023-04-15T16:45:13.564Z,13.38
2023-04-15T16:47:44.060Z,8.20
2023-04-15T16:50:12.788Z,9.35
2023-04-15T16:52:41.108Z,10.02
2023-04-15T16:55:09.737Z,9.55
2023-04-15T16:58:02.772Z,9.13
2023-04-15T17:00:36.832Z,9.48
2023-04-15T17:03:13.792Z,9.20
2023-04-15T17:05:47.046Z,12.07
2023-04-15T17:08:18.369Z,9.30
2023-04-15T17:10:49.152Z,8.43
2023-04-15T17:13:22.538Z,6.53
2023-04-15T17:16:02.038Z,9.60
2023-04-15T17:18:30.493Z,12.20
2023-04-15T17:20:58.694Z,12.50
2023-04-15T17:23:28.203Z,7.30
2023-04-15T17:25:58.482Z,7.20
2023-04-15T17:28:28.047Z,7.55
2023-04-15T17:30:59.028Z,5.72
2023-04-15T17:34:01.211Z,8.35
2023-04-15T17:36:32.981Z,8.93
2023-04-15T17:39:06.698Z,8.40
2023-04-15T17:41:35.147Z,5.28
2023-04-15T17:44:04.135Z,8.45
2023-04-15T17:46:34.133Z,5.35
2023-04-15T17:49:03.423Z,8.13
2023-04-15T17:51:35.282Z,8.05
2023-04-15T17:54:04.075Z,7.47
2023-04-15T17:56:32.707Z,4.35
2023-04-15T17:59:02.529Z,8.73
2023-04-15T18:01:31.092Z,10.10
2023-04-15T18:04:00.938Z,5.20
2023-04-15T18:06:29.268Z,10.07
2023-04-15T18:08:58.304Z,10.25
2023-04-15T18:11:26.642Z,13.90
2023-04-15T18:13:55.339Z,9.10
2023-04-15T18:16:23.879Z,9.13
2023-04-15T18:18:52.511Z,9.68
2023-04-15T18:21:25.189Z,12.80
2023-04-15T18:23:55.771Z,13.85
2023-04-15T18:26:23.889Z,13.82
2023-04-15T18:28:52.133Z,14.77
2023-04-15T18:31:20.885Z,18.42
2023-04-15T18:33:50.763Z,21.73
2023-04-15T18:36:23.151Z,26.27
2023-04-15T18:38:52.691Z,31.23
2023-04-15T18:41:26.646Z,32.55
2023-04-15T18:43:58.827Z,34.75
2023-04-15T18:46:28.363Z,36.80
2023-04-15T18:48:56.981Z,38.47
2023-04-15T18:51:26.069Z,37.30
2023-04-15T18:53:55.789Z,37.13
2023-04-15T18:56:23.999Z,40.65
2023-04-15T18:59:11.594Z,41.65
2023-04-15T19:01:43.131Z,40.60
2023-04-15T19:04:11.714Z,40.00
2023-04-15T19:06:39.906Z,38.85
2023-04-15T19:09:10.204Z,39.05
2023-04-15T19:11:38.655Z,40.80
2023-04-15T19:14:08.142Z,39.30
2023-04-15T19:16:36.439Z,39.25
2023-04-15T19:19:06.832Z,38.13
2023-04-15T19:21:35.453Z,40.72
2023-04-15T19:24:03.852Z,39.90
2023-04-15T19:26:36.092Z,41.83
2023-04-15T19:29:04.548Z,41.20
2023-04-15T19:31:33.256Z,41.55
2023-04-15T19:34:01.581Z,41.87
2023-04-15T19:36:29.737Z,41.83
2023-04-15T19:38:58.178Z,41.53
2023-04-15T19:41:26.499Z,41.90
2023-04-15T19:43:56.620Z,40.72
2023-04-15T19:46:28.024Z,40.97
2023-04-15T19:48:56.942Z,41.23
2023-04-15T19:51:29.498Z,40.10
2023-04-15T19:53:59.710Z,41.03
2023-04-15T19:56:27.854Z,41.28
2023-04-15T19:59:00.116Z,41.37
2023-04-15T20:01:29.107Z,41.47
2023-04-15T20:03:57.380Z,41.17
2023-04-15T20:06:27.453Z,40.80
2023-04-15T20:08:55.824Z,40.20
2023-04-15T20:12:46.059Z,41.10
2023-04-15T20:14:18.940Z,39.20
2023-04-15T20:16:47.821Z,41.27
2023-04-15T20:19:18.024Z,41.20
2023-04-15T20:21:46.397Z,43.85
2023-04-15T20:24:16.705Z,41.07
2023-04-15T20:26:45.144Z,42.20
2023-04-15T20:29:13.671Z,42.35
2023-04-15T20:31:43.681Z,41.13
2023-04-15T20:34:14.367Z,40.55
2023-04-15T20:36:44.853Z,41.35
2023-04-15T20:39:13.106Z,41.28
2023-04-15T20:41:41.395Z,40.78
2023-04-15T20:44:10.900Z,40.88
2023-04-15T20:46:39.088Z,40.70
2023-04-15T20:49:08.956Z,41.28
2023-04-15T20:51:37.991Z,41.22
2023-04-15T20:54:06.279Z,40.67
2023-04-15T20:56:34.700Z,39.90
2023-04-15T20:59:03.059Z,39.75
2023-04-15T21:01:31.555Z,39.78
2023-04-15T21:04:01.598Z,40.40
2023-04-15T21:06:31.239Z,39.22
2023-04-15T21:08:59.267Z,40.58
2023-04-15T21:11:46.454Z,40.37
2023-04-15T21:14:15.618Z,41.15
2023-04-15T21:16:44.508Z,41.00
2023-04-15T21:19:12.781Z,40.42
2023-04-15T21:21:45.093Z,40.28
2023-04-15T21:24:13.269Z,39.88
2023-04-15T21:26:41.526Z,40.25
2023-04-15T21:29:11.905Z,40.03
2023-04-15T21:31:41.449Z,39.72
2023-04-15T21:34:10.031Z,39.78
2023-04-15T21:36:38.546Z,39.35
2023-04-15T21:39:08.369Z,38.80
2023-04-15T21:41:40.503Z,39.17
2023-04-15T21:44:08.509Z,39.85
2023-04-15T21:46:36.596Z,39.65
2023-04-15T21:49:06.869Z,39.53
2023-04-15T21:51:37.749Z,38.72
2023-04-15T21:54:07.558Z,39.08
2023-04-15T21:56:36.897Z,39.45
2023-04-15T21:59:05.275Z,39.15
2023-04-15T22:01:33.595Z,39.00
2023-04-15T22:04:02.026Z,38.78
2023-04-15T22:06:31.882Z,38.17
2023-04-15T22:09:02.442Z,38.90
2023-04-15T22:11:32.538Z,39.42
2023-04-15T22:14:02.011Z,40.00
2023-04-15T22:16:30.220Z,41.38
2023-04-15T22:18:58.194Z,40.35
2023-04-15T22:21:26.758Z,41.08
2023-04-15T22:24:32.091Z,42.05
2023-04-15T22:26:44.965Z,41.75
2023-04-15T22:29:16.112Z,42.20
2023-04-15T22:31:44.477Z,42.60
2023-04-15T22:34:14.886Z,42.42
2023-04-15T22:36:43.094Z,42.92
2023-04-15T22:39:11.213Z,43.22
2023-04-15T22:41:43.163Z,43.20
2023-04-15T22:44:13.196Z,42.53
2023-04-15T22:46:44.485Z,44.13
2023-04-15T22:49:12.616Z,43.47
2023-04-15T22:51:42.500Z,43.35
2023-04-15T22:54:10.961Z,43.83
2023-04-15T22:56:39.305Z,42.38
2023-04-15T22:59:08.665Z,42.65
2023-04-15T23:01:39.079Z,42.45
2023-04-15T23:04:22.858Z,43.67
2023-04-15T23:06:54.101Z,42.53
2023-04-15T23:09:22.576Z,42.25
2023-04-15T23:11:53.849Z,42.08
2023-04-15T23:14:21.949Z,42.90
2023-04-15T23:16:51.528Z,43.40
2023-04-15T23:19:19.550Z,43.30
2023-04-15T23:21:47.887Z,43.63
2023-04-15T23:24:15.979Z,45.45
2023-04-15T23:26:44.331Z,43.47
2023-04-15T23:29:12.405Z,44.03
2023-04-15T23:31:41.731Z,43.20
2023-04-15T23:34:11.423Z,43.15
2023-04-15T23:36:43.093Z,44.70
2023-04-15T23:39:11.405Z,44.38
2023-04-15T23:41:39.781Z,43.97
2023-04-15T23:44:08.299Z,45.53
2023-04-15T23:46:38.117Z,44.92
2023-04-15T23:49:06.227Z,44.17
2023-04-15T23:51:35.777Z,43.70
2023-04-15T23:54:04.169Z,44.20
2023-04-15T23:56:32.580Z,42.65
2023-04-15T23:59:00.770Z,41.75
